sensor_id;sensor_type;location;lat;lon;timestamp;pressure;altitude;pressure_sealevel;temperature;humidity
76128;BME280;64873;50.102;14.434;2023-03-31T00:00:31;98762.78;;;8.01;81.64
76128;BME280;64873;50.102;14.434;2023-03-31T00:02:56;98764.50;;;7.89;81.84
76128;BME280;64873;50.102;14.434;2023-03-31T00:05:25;98772.06;;;7.85;82.47
76128;BME280;64873;50.102;14.434;2023-03-31T00:07:55;98764.31;;;7.84;82.84
76128;BME280;64873;50.102;14.434;2023-03-31T00:10:30;98755.97;;;7.80;82.91
76128;BME280;64873;50.102;14.434;2023-03-31T00:12:58;98748.97;;;7.86;82.29
76128;BME280;64873;50.102;14.434;2023-03-31T00:15:23;98745.78;;;8.02;81.90
76128;BME280;64873;50.102;14.434;2023-03-31T00:17:48;98743.19;;;7.95;82.47
76128;BME280;64873;50.102;14.434;2023-03-31T00:20:14;98744.31;;;8.13;81.70
76128;BME280;64873;50.102;14.434;2023-03-31T00:22:41;98753.44;;;7.92;81.57
76128;BME280;64873;50.102;14.434;2023-03-31T00:25:14;98749.41;;;7.76;82.25
76128;BME280;64873;50.102;14.434;2023-03-31T00:27:41;98743.94;;;8.02;82.02
76128;BME280;64873;50.102;14.434;2023-03-31T00:30:08;98747.09;;;7.93;82.24
76128;BME280;64873;50.102;14.434;2023-03-31T00:32:34;98741.59;;;7.88;82.21
76128;BME280;64873;50.102;14.434;2023-03-31T00:34:59;98720.34;;;7.81;82.24
76128;BME280;64873;50.102;14.434;2023-03-31T00:37:27;98735.91;;;7.78;82.87
76128;BME280;64873;50.102;14.434;2023-03-31T00:39:52;98721.38;;;7.80;82.85
76128;BME280;64873;50.102;14.434;2023-03-31T00:42:18;98719.09;;;7.84;82.50
76128;BME280;64873;50.102;14.434;2023-03-31T00:47:46;98707.00;;;7.43;83.53
76128;BME280;64873;50.102;14.434;2023-03-31T00:50:25;98718.41;;;7.50;83.55
76128;BME280;64873;50.102;14.434;2023-03-31T00:53:14;98705.13;;;7.57;83.32
76128;BME280;64873;50.102;14.434;2023-03-31T00:55:48;98708.09;;;7.73;83.01
76128;BME280;64873;50.102;14.434;2023-03-31T00:58:16;98698.78;;;7.58;83.27
76128;BME280;64873;50.102;14.434;2023-03-31T01:00:45;98697.13;;;7.63;83.34
76128;BME280;64873;50.102;14.434;2023-03-31T01:03:12;98696.88;;;7.65;83.49
76128;BME280;64873;50.102;14.434;2023-03-31T01:05:59;98696.84;;;7.71;82.66
76128;BME280;64873;50.102;14.434;2023-03-31T01:08:28;98685.97;;;7.80;82.54
76128;BME280;64873;50.102;14.434;2023-03-31T01:10:57;98678.69;;;7.68;82.65
76128;BME280;64873;50.102;14.434;2023-03-31T01:13:24;98661.88;;;7.74;82.72
76128;BME280;64873;50.102;14.434;2023-03-31T01:15:51;98673.47;;;7.87;82.15
76128;BME280;64873;50.102;14.434;2023-03-31T01:18:17;98668.03;;;8.00;81.99
76128;BME280;64873;50.102;14.434;2023-03-31T01:21:31;98667.69;;;7.90;82.25
76128;BME280;64873;50.102;14.434;2023-03-31T01:26:52;98644.53;;;7.65;82.96
76128;BME280;64873;50.102;14.434;2023-03-31T01:32:18;98645.91;;;8.06;81.59
76128;BME280;64873;50.102;14.434;2023-03-31T01:40:32;98628.66;;;7.84;81.99
76128;BME280;64873;50.102;14.434;2023-03-31T01:46:31;98619.34;;;7.68;82.64
76128;BME280;64873;50.102;14.434;2023-03-31T01:51:38;98609.94;;;7.65;83.36
76128;BME280;64873;50.102;14.434;2023-03-31T01:57:31;98600.84;;;7.80;83.21
76128;BME280;64873;50.102;14.434;2023-03-31T02:00:03;98599.59;;;7.57;83.46
76128;BME280;64873;50.102;14.434;2023-03-31T02:02:39;98599.03;;;7.73;83.74
76128;BME280;64873;50.102;14.434;2023-03-31T02:05:35;98591.06;;;7.73;83.37
76128;BME280;64873;50.102;14.434;2023-03-31T02:08:15;98585.38;;;7.70;83.44
76128;BME280;64873;50.102;14.434;2023-03-31T02:10:43;98584.50;;;7.51;83.64
76128;BME280;64873;50.102;14.434;2023-03-31T02:13:11;98579.81;;;7.46;84.24
76128;BME280;64873;50.102;14.434;2023-03-31T02:15:41;98558.38;;;7.41;84.37
76128;BME280;64873;50.102;14.434;2023-03-31T02:18:10;98574.09;;;7.43;84.30
76128;BME280;64873;50.102;14.434;2023-03-31T02:20:39;98575.25;;;7.54;83.76
76128;BME280;64873;50.102;14.434;2023-03-31T02:23:12;98560.13;;;7.54;83.32
76128;BME280;64873;50.102;14.434;2023-03-31T02:25:53;98561.59;;;7.43;84.14
76128;BME280;64873;50.102;14.434;2023-03-31T02:28:24;98561.06;;;7.35;84.55
76128;BME280;64873;50.102;14.434;2023-03-31T02:33:49;98563.53;;;7.30;85.25
76128;BME280;64873;50.102;14.434;2023-03-31T02:36:15;98563.72;;;7.35;85.27
76128;BME280;64873;50.102;14.434;2023-03-31T02:39:02;98566.25;;;7.55;84.55
76128;BME280;64873;50.102;14.434;2023-03-31T02:41:29;98574.44;;;7.53;84.59
76128;BME280;64873;50.102;14.434;2023-03-31T02:43:55;98552.31;;;7.59;84.25
76128;BME280;64873;50.102;14.434;2023-03-31T02:46:21;98551.56;;;8.02;82.42
76128;BME280;64873;50.102;14.434;2023-03-31T02:48:53;98544.75;;;7.88;82.23
76128;BME280;64873;50.102;14.434;2023-03-31T02:54:29;98554.19;;;7.84;82.52
76128;BME280;64873;50.102;14.434;2023-03-31T03:08:14;98541.38;;;7.99;82.27
76128;BME280;64873;50.102;14.434;2023-03-31T03:13:39;98538.81;;;8.11;81.67
76128;BME280;64873;50.102;14.434;2023-03-31T03:18:43;98513.63;;;8.32;80.91
76128;BME280;64873;50.102;14.434;2023-03-31T03:21:08;98531.13;;;8.46;80.21
76128;BME280;64873;50.102;14.434;2023-03-31T03:23:34;98539.38;;;8.38;80.56
76128;BME280;64873;50.102;14.434;2023-03-31T03:25:59;98541.63;;;8.41;80.04
76128;BME280;64873;50.102;14.434;2023-03-31T03:28:25;98533.25;;;8.55;79.94
76128;BME280;64873;50.102;14.434;2023-03-31T03:30:51;98495.59;;;8.34;79.43
76128;BME280;64873;50.102;14.434;2023-03-31T03:33:17;98513.00;;;8.54;79.12
76128;BME280;64873;50.102;14.434;2023-03-31T03:35:43;98520.03;;;8.86;78.65
76128;BME280;64873;50.102;14.434;2023-03-31T03:38:08;98512.47;;;8.82;78.28
76128;BME280;64873;50.102;14.434;2023-03-31T03:40:34;98511.19;;;8.85;78.29
76128;BME280;64873;50.102;14.434;2023-03-31T03:42:59;98503.56;;;8.89;78.35
76128;BME280;64873;50.102;14.434;2023-03-31T03:45:25;98499.59;;;8.79;78.43
76128;BME280;64873;50.102;14.434;2023-03-31T03:47:50;98485.34;;;8.74;78.34
76128;BME280;64873;50.102;14.434;2023-03-31T03:50:16;98495.59;;;8.70;78.39
76128;BME280;64873;50.102;14.434;2023-03-31T03:52:41;98489.09;;;8.66;79.23
76128;BME280;64873;50.102;14.434;2023-03-31T03:55:07;98477.34;;;8.55;79.02
76128;BME280;64873;50.102;14.434;2023-03-31T03:57:32;98470.56;;;8.41;79.66
76128;BME280;64873;50.102;14.434;2023-03-31T03:59:58;98464.75;;;8.81;78.48
76128;BME280;64873;50.102;14.434;2023-03-31T04:02:23;98458.50;;;8.57;79.06
76128;BME280;64873;50.102;14.434;2023-03-31T04:04:49;98467.16;;;8.52;78.95
76128;BME280;64873;50.102;14.434;2023-03-31T04:07:14;98459.78;;;8.66;78.65
76128;BME280;64873;50.102;14.434;2023-03-31T04:09:39;98452.28;;;8.63;78.96
76128;BME280;64873;50.102;14.434;2023-03-31T04:12:05;98455.13;;;8.62;79.14
76128;BME280;64873;50.102;14.434;2023-03-31T04:14:30;98451.97;;;8.53;79.10
76128;BME280;64873;50.102;14.434;2023-03-31T04:16:56;98436.97;;;8.40;79.43
76128;BME280;64873;50.102;14.434;2023-03-31T04:19:22;98434.09;;;8.42;79.79
76128;BME280;64873;50.102;14.434;2023-03-31T04:21:53;98432.41;;;8.77;78.98
76128;BME280;64873;50.102;14.434;2023-03-31T04:24:28;98408.81;;;8.51;78.73
76128;BME280;64873;50.102;14.434;2023-03-31T04:26:58;98432.16;;;8.49;79.34
76128;BME280;64873;50.102;14.434;2023-03-31T04:29:24;98421.00;;;8.40;79.66
76128;BME280;64873;50.102;14.434;2023-03-31T04:31:54;98413.97;;;8.46;80.08
76128;BME280;64873;50.102;14.434;2023-03-31T04:34:23;98401.16;;;8.54;79.89
76128;BME280;64873;50.102;14.434;2023-03-31T04:36:51;98402.16;;;8.42;79.54
76128;BME280;64873;50.102;14.434;2023-03-31T04:39:20;98396.34;;;8.26;79.81
76128;BME280;64873;50.102;14.434;2023-03-31T04:41:55;98399.25;;;8.25;80.06
76128;BME280;64873;50.102;14.434;2023-03-31T04:44:21;98413.28;;;8.32;80.12
76128;BME280;64873;50.102;14.434;2023-03-31T04:46:46;98410.03;;;8.30;80.36
76128;BME280;64873;50.102;14.434;2023-03-31T04:49:12;98410.25;;;8.28;80.17
76128;BME280;64873;50.102;14.434;2023-03-31T04:51:37;98401.72;;;8.45;80.57
76128;BME280;64873;50.102;14.434;2023-03-31T04:54:03;98397.25;;;8.57;79.66
76128;BME280;64873;50.102;14.434;2023-03-31T04:56:28;98398.72;;;8.53;79.69
76128;BME280;64873;50.102;14.434;2023-03-31T04:58:54;98394.53;;;8.45;79.77
76128;BME280;64873;50.102;14.434;2023-03-31T05:01:19;98385.34;;;8.41;80.33
76128;BME280;64873;50.102;14.434;2023-03-31T05:03:45;98373.53;;;8.37;80.25
76128;BME280;64873;50.102;14.434;2023-03-31T05:06:13;98382.41;;;8.61;79.41
76128;BME280;64873;50.102;14.434;2023-03-31T05:08:39;98372.56;;;8.80;78.71
76128;BME280;64873;50.102;14.434;2023-03-31T05:11:05;98375.53;;;8.72;79.18
76128;BME280;64873;50.102;14.434;2023-03-31T05:13:31;98385.25;;;8.78;78.90
76128;BME280;64873;50.102;14.434;2023-03-31T05:15:56;98379.41;;;8.88;78.56
76128;BME280;64873;50.102;14.434;2023-03-31T05:18:22;98370.94;;;8.91;78.26
76128;BME280;64873;50.102;14.434;2023-03-31T05:20:47;98368.63;;;8.94;78.10
76128;BME280;64873;50.102;14.434;2023-03-31T05:23:13;98367.56;;;8.84;78.46
76128;BME280;64873;50.102;14.434;2023-03-31T05:25:39;98356.41;;;8.63;78.92
76128;BME280;64873;50.102;14.434;2023-03-31T05:28:06;98360.63;;;8.82;78.03
76128;BME280;64873;50.102;14.434;2023-03-31T05:30:32;98346.34;;;8.77;78.43
76128;BME280;64873;50.102;14.434;2023-03-31T05:32:58;98342.75;;;8.71;79.06
76128;BME280;64873;50.102;14.434;2023-03-31T05:35:25;98346.34;;;8.77;78.44
76128;BME280;64873;50.102;14.434;2023-03-31T05:37:50;98330.91;;;8.67;78.52
76128;BME280;64873;50.102;14.434;2023-03-31T05:40:16;98321.97;;;8.62;78.86
76128;BME280;64873;50.102;14.434;2023-03-31T05:42:41;98308.56;;;8.57;79.00
76128;BME280;64873;50.102;14.434;2023-03-31T05:45:07;98312.72;;;8.52;78.74
76128;BME280;64873;50.102;14.434;2023-03-31T05:47:33;98321.78;;;8.63;78.69
76128;BME280;64873;50.102;14.434;2023-03-31T05:49:58;98331.34;;;8.52;79.15
76128;BME280;64873;50.102;14.434;2023-03-31T05:52:25;98315.34;;;8.41;79.83
76128;BME280;64873;50.102;14.434;2023-03-31T05:54:50;98307.38;;;8.22;80.30
76128;BME280;64873;50.102;14.434;2023-03-31T05:57:15;98304.09;;;8.20;80.68
76128;BME280;64873;50.102;14.434;2023-03-31T05:59:41;98289.53;;;8.23;80.50
76128;BME280;64873;50.102;14.434;2023-03-31T06:02:07;98298.63;;;8.34;80.52
76128;BME280;64873;50.102;14.434;2023-03-31T06:04:33;98302.53;;;8.31;80.17
76128;BME280;64873;50.102;14.434;2023-03-31T06:06:59;98297.88;;;8.26;80.48
76128;BME280;64873;50.102;14.434;2023-03-31T06:09:25;98296.34;;;8.19;81.10
76128;BME280;64873;50.102;14.434;2023-03-31T06:11:50;98282.47;;;8.17;81.06
76128;BME280;64873;50.102;14.434;2023-03-31T06:14:16;98291.81;;;8.38;80.61
76128;BME280;64873;50.102;14.434;2023-03-31T06:16:41;98290.38;;;8.65;78.86
76128;BME280;64873;50.102;14.434;2023-03-31T06:19:07;98275.59;;;8.69;78.80
76128;BME280;64873;50.102;14.434;2023-03-31T06:21:32;98282.06;;;8.73;78.67
76128;BME280;64873;50.102;14.434;2023-03-31T06:23:58;98290.53;;;8.82;78.75
76128;BME280;64873;50.102;14.434;2023-03-31T06:26:25;98280.03;;;8.99;78.31
76128;BME280;64873;50.102;14.434;2023-03-31T06:28:50;98281.06;;;9.45;77.05
76128;BME280;64873;50.102;14.434;2023-03-31T06:31:19;98270.03;;;9.93;74.85
76128;BME280;64873;50.102;14.434;2023-03-31T06:33:46;98268.81;;;10.12;74.09
76128;BME280;64873;50.102;14.434;2023-03-31T06:36:14;98265.25;;;10.35;73.10
76128;BME280;64873;50.102;14.434;2023-03-31T06:38:40;98264.09;;;10.31;73.43
76128;BME280;64873;50.102;14.434;2023-03-31T06:41:06;98269.69;;;9.89;73.95
76128;BME280;64873;50.102;14.434;2023-03-31T06:43:33;98268.66;;;10.19;73.50
76128;BME280;64873;50.102;14.434;2023-03-31T06:45:59;98271.72;;;10.11;73.39
76128;BME280;64873;50.102;14.434;2023-03-31T06:48:25;98270.06;;;10.22;73.55
76128;BME280;64873;50.102;14.434;2023-03-31T06:50:55;98268.59;;;10.43;72.26
76128;BME280;64873;50.102;14.434;2023-03-31T06:53:23;98272.00;;;10.55;71.82
76128;BME280;64873;50.102;14.434;2023-03-31T06:55:48;98274.97;;;10.41;72.03
76128;BME280;64873;50.102;14.434;2023-03-31T06:58:14;98261.75;;;10.63;70.97
76128;BME280;64873;50.102;14.434;2023-03-31T07:00:39;98253.38;;;10.60;71.42
76128;BME280;64873;50.102;14.434;2023-03-31T07:03:05;98250.97;;;10.75;71.29
76128;BME280;64873;50.102;14.434;2023-03-31T07:05:30;98234.28;;;10.51;71.89
76128;BME280;64873;50.102;14.434;2023-03-31T07:07:57;98244.41;;;10.83;71.30
76128;BME280;64873;50.102;14.434;2023-03-31T07:10:24;98235.25;;;10.95;70.94
76128;BME280;64873;50.102;14.434;2023-03-31T07:12:50;98243.84;;;10.98;70.86
76128;BME280;64873;50.102;14.434;2023-03-31T07:15:16;98219.00;;;11.19;69.98
76128;BME280;64873;50.102;14.434;2023-03-31T07:17:41;98233.22;;;11.41;69.25
76128;BME280;64873;50.102;14.434;2023-03-31T07:20:13;98236.94;;;11.40;69.59
76128;BME280;64873;50.102;14.434;2023-03-31T07:22:42;98227.97;;;11.30;69.68
76128;BME280;64873;50.102;14.434;2023-03-31T07:25:10;98225.34;;;11.13;70.29
76128;BME280;64873;50.102;14.434;2023-03-31T07:27:36;98233.88;;;10.93;71.63
76128;BME280;64873;50.102;14.434;2023-03-31T07:30:04;98219.34;;;11.06;70.47
76128;BME280;64873;50.102;14.434;2023-03-31T07:32:29;98210.63;;;10.93;71.07
76128;BME280;64873;50.102;14.434;2023-03-31T07:34:55;98226.91;;;11.09;71.11
76128;BME280;64873;50.102;14.434;2023-03-31T07:37:20;98221.91;;;11.34;70.30
76128;BME280;64873;50.102;14.434;2023-03-31T07:39:46;98209.41;;;11.40;70.60
76128;BME280;64873;50.102;14.434;2023-03-31T07:42:11;98206.78;;;11.67;69.47
76128;BME280;64873;50.102;14.434;2023-03-31T07:44:37;98201.53;;;11.77;68.51
76128;BME280;64873;50.102;14.434;2023-03-31T07:47:03;98199.72;;;12.05;67.73
76128;BME280;64873;50.102;14.434;2023-03-31T07:49:31;98206.19;;;12.09;67.82
76128;BME280;64873;50.102;14.434;2023-03-31T07:51:57;98187.09;;;12.00;68.34
76128;BME280;64873;50.102;14.434;2023-03-31T07:54:23;98178.91;;;12.12;66.98
76128;BME280;64873;50.102;14.434;2023-03-31T07:56:49;98184.91;;;12.24;67.08
76128;BME280;64873;50.102;14.434;2023-03-31T07:59:14;98172.09;;;11.77;67.70
76128;BME280;64873;50.102;14.434;2023-03-31T08:01:40;98153.91;;;12.01;67.11
76128;BME280;64873;50.102;14.434;2023-03-31T08:04:06;98166.09;;;12.14;67.42
76128;BME280;64873;50.102;14.434;2023-03-31T08:06:31;98166.97;;;12.24;66.14
76128;BME280;64873;50.102;14.434;2023-03-31T08:08:57;98176.75;;;12.41;65.84
76128;BME280;64873;50.102;14.434;2023-03-31T08:11:23;98174.78;;;12.31;66.17
76128;BME280;64873;50.102;14.434;2023-03-31T08:13:49;98174.06;;;11.82;67.23
76128;BME280;64873;50.102;14.434;2023-03-31T08:16:15;98165.38;;;11.96;66.92
76128;BME280;64873;50.102;14.434;2023-03-31T08:18:41;98183.97;;;11.81;67.18
76128;BME280;64873;50.102;14.434;2023-03-31T08:21:06;98179.81;;;11.95;67.09
76128;BME280;64873;50.102;14.434;2023-03-31T08:23:34;98176.38;;;11.78;67.57
76128;BME280;64873;50.102;14.434;2023-03-31T08:26:13;98177.91;;;11.91;67.55
76128;BME280;64873;50.102;14.434;2023-03-31T08:28:41;98171.00;;;11.73;68.80
76128;BME280;64873;50.102;14.434;2023-03-31T08:31:07;98159.16;;;11.69;69.53
76128;BME280;64873;50.102;14.434;2023-03-31T08:33:35;98152.28;;;11.78;69.69
76128;BME280;64873;50.102;14.434;2023-03-31T08:36:06;98145.16;;;11.84;69.13
76128;BME280;64873;50.102;14.434;2023-03-31T08:38:37;98155.88;;;11.84;69.97
76128;BME280;64873;50.102;14.434;2023-03-31T08:41:05;98169.25;;;11.84;70.67
76128;BME280;64873;50.102;14.434;2023-03-31T08:43:39;98159.16;;;11.69;71.04
76128;BME280;64873;50.102;14.434;2023-03-31T08:46:10;98163.19;;;11.44;71.86
76128;BME280;64873;50.102;14.434;2023-03-31T08:48:49;98155.81;;;11.57;72.25
76128;BME280;64873;50.102;14.434;2023-03-31T08:51:27;98165.41;;;11.53;71.74
76128;BME280;64873;50.102;14.434;2023-03-31T08:53:59;98166.28;;;11.36;72.67
76128;BME280;64873;50.102;14.434;2023-03-31T08:56:27;98148.75;;;11.45;71.91
76128;BME280;64873;50.102;14.434;2023-03-31T08:58:54;98159.50;;;11.29;72.45
76128;BME280;64873;50.102;14.434;2023-03-31T09:06:52;98148.19;;;11.21;72.45
76128;BME280;64873;50.102;14.434;2023-03-31T09:11:57;98131.88;;;11.23;72.25
76128;BME280;64873;50.102;14.434;2023-03-31T09:15:09;98133.38;;;11.14;72.60
76128;BME280;64873;50.102;14.434;2023-03-31T09:17:41;98125.47;;;11.24;72.79
76128;BME280;64873;50.102;14.434;2023-03-31T09:22:53;98105.09;;;11.18;72.22
76128;BME280;64873;50.102;14.434;2023-03-31T09:25:26;98105.41;;;11.21;72.36
76128;BME280;64873;50.102;14.434;2023-03-31T09:27:57;98107.81;;;11.23;72.17
76128;BME280;64873;50.102;14.434;2023-03-31T09:30:29;98100.25;;;11.15;72.27
76128;BME280;64873;50.102;14.434;2023-03-31T09:33:19;98101.84;;;11.16;72.98
76128;BME280;64873;50.102;14.434;2023-03-31T09:35:48;98080.00;;;11.24;71.94
76128;BME280;64873;50.102;14.434;2023-03-31T09:38:14;98081.34;;;11.00;72.89
76128;BME280;64873;50.102;14.434;2023-03-31T09:40:40;98088.91;;;11.08;72.81
76128;BME280;64873;50.102;14.434;2023-03-31T09:43:20;98073.19;;;11.11;72.02
76128;BME280;64873;50.102;14.434;2023-03-31T09:45:47;98083.34;;;11.36;71.91
76128;BME280;64873;50.102;14.434;2023-03-31T09:48:29;98079.28;;;11.29;72.16
76128;BME280;64873;50.102;14.434;2023-03-31T09:51:07;98080.72;;;10.92;73.69
76128;BME280;64873;50.102;14.434;2023-03-31T09:53:48;98069.84;;;10.99;73.30
76128;BME280;64873;50.102;14.434;2023-03-31T09:56:49;98077.72;;;11.11;74.12
76128;BME280;64873;50.102;14.434;2023-03-31T09:59:31;98074.59;;;11.19;73.97
76128;BME280;64873;50.102;14.434;2023-03-31T10:02:00;98070.31;;;11.18;73.17
76128;BME280;64873;50.102;14.434;2023-03-31T10:04:29;98051.91;;;11.48;73.33
76128;BME280;64873;50.102;14.434;2023-03-31T10:06:58;98060.19;;;11.20;73.83
76128;BME280;64873;50.102;14.434;2023-03-31T10:09:29;98044.59;;;11.12;72.99
76128;BME280;64873;50.102;14.434;2023-03-31T10:14:31;98040.88;;;11.40;72.84
76128;BME280;64873;50.102;14.434;2023-03-31T10:16:57;98016.91;;;11.23;72.65
76128;BME280;64873;50.102;14.434;2023-03-31T10:19:25;98040.75;;;11.03;73.89
76128;BME280;64873;50.102;14.434;2023-03-31T10:24:21;98017.13;;;11.43;72.73
76128;BME280;64873;50.102;14.434;2023-03-31T10:26:48;98022.38;;;11.33;73.22
76128;BME280;64873;50.102;14.434;2023-03-31T10:29:20;98011.69;;;11.11;73.69
76128;BME280;64873;50.102;14.434;2023-03-31T10:31:50;98012.16;;;11.30;73.72
76128;BME280;64873;50.102;14.434;2023-03-31T10:34:17;98008.94;;;11.28;73.93
76128;BME280;64873;50.102;14.434;2023-03-31T10:36:47;97988.03;;;11.25;73.96
76128;BME280;64873;50.102;14.434;2023-03-31T10:39:17;98004.69;;;11.32;74.29
76128;BME280;64873;50.102;14.434;2023-03-31T10:41:49;97990.38;;;11.48;72.55
76128;BME280;64873;50.102;14.434;2023-03-31T10:44:36;97994.50;;;11.29;73.75
76128;BME280;64873;50.102;14.434;2023-03-31T10:47:16;97987.47;;;11.50;73.25
76128;BME280;64873;50.102;14.434;2023-03-31T10:49:43;97995.25;;;11.52;72.90
76128;BME280;64873;50.102;14.434;2023-03-31T10:52:20;97987.44;;;11.18;73.95
76128;BME280;64873;50.102;14.434;2023-03-31T10:54:49;97981.47;;;11.11;74.72
76128;BME280;64873;50.102;14.434;2023-03-31T10:57:16;97983.47;;;11.20;74.38
76128;BME280;64873;50.102;14.434;2023-03-31T10:59:58;97982.34;;;11.43;73.05
76128;BME280;64873;50.102;14.434;2023-03-31T11:08:15;97983.28;;;11.05;75.37
76128;BME280;64873;50.102;14.434;2023-03-31T11:14:01;97962.06;;;10.93;76.34
76128;BME280;64873;50.102;14.434;2023-03-31T11:22:24;97961.47;;;10.64;79.63
76128;BME280;64873;50.102;14.434;2023-03-31T11:31:05;97974.63;;;10.49;81.47
76128;BME280;64873;50.102;14.434;2023-03-31T11:34:00;97966.19;;;10.57;82.49
76128;BME280;64873;50.102;14.434;2023-03-31T11:36:47;97940.53;;;10.34;82.34
76128;BME280;64873;50.102;14.434;2023-03-31T11:42:14;97928.06;;;10.67;80.78
76128;BME280;64873;50.102;14.434;2023-03-31T11:44:45;97920.63;;;10.69;80.87
76128;BME280;64873;50.102;14.434;2023-03-31T11:47:16;97850.47;;;10.52;81.35
76128;BME280;64873;50.102;14.434;2023-03-31T11:49:55;97822.84;;;10.68;81.87
76128;BME280;64873;50.102;14.434;2023-03-31T11:52:27;97837.25;;;10.67;81.58
76128;BME280;64873;50.102;14.434;2023-03-31T11:55:11;97846.81;;;10.90;81.09
76128;BME280;64873;50.102;14.434;2023-03-31T11:57:47;97863.47;;;11.29;79.31
76128;BME280;64873;50.102;14.434;2023-03-31T12:00:20;97874.84;;;11.52;75.22
76128;BME280;64873;50.102;14.434;2023-03-31T12:03:10;97895.00;;;11.27;73.93
76128;BME280;64873;50.102;14.434;2023-03-31T12:05:44;97890.41;;;11.23;72.66
76128;BME280;64873;50.102;14.434;2023-03-31T12:08:16;97885.38;;;11.31;72.77
76128;BME280;64873;50.102;14.434;2023-03-31T12:10:47;97874.31;;;11.55;71.63
76128;BME280;64873;50.102;14.434;2023-03-31T12:19:10;97864.72;;;11.59;72.27
76128;BME280;64873;50.102;14.434;2023-03-31T12:21:42;97848.22;;;11.67;71.75
76128;BME280;64873;50.102;14.434;2023-03-31T12:24:12;97857.88;;;11.78;71.91
76128;BME280;64873;50.102;14.434;2023-03-31T12:29:32;97856.19;;;12.04;70.47
76128;BME280;64873;50.102;14.434;2023-03-31T12:32:03;97841.00;;;12.25;69.79
76128;BME280;64873;50.102;14.434;2023-03-31T12:34:31;97851.19;;;12.28;69.33
76128;BME280;64873;50.102;14.434;2023-03-31T12:37:15;97829.75;;;12.23;69.82
76128;BME280;64873;50.102;14.434;2023-03-31T12:45:30;97814.16;;;12.05;70.09
76128;BME280;64873;50.102;14.434;2023-03-31T12:51:57;97803.44;;;12.05;70.11
76128;BME280;64873;50.102;14.434;2023-03-31T12:59:38;97791.84;;;13.07;67.26
76128;BME280;64873;50.102;14.434;2023-03-31T13:02:18;97791.81;;;13.02;67.19
76128;BME280;64873;50.102;14.434;2023-03-31T13:04:45;97784.03;;;13.16;66.59
76128;BME280;64873;50.102;14.434;2023-03-31T13:10:22;97750.25;;;12.90;67.93
76128;BME280;64873;50.102;14.434;2023-03-31T13:13:04;97766.34;;;12.79;68.75
76128;BME280;64873;50.102;14.434;2023-03-31T13:15:31;97755.88;;;13.29;67.41
76128;BME280;64873;50.102;14.434;2023-03-31T13:18:03;97735.97;;;13.50;66.37
76128;BME280;64873;50.102;14.434;2023-03-31T13:20:31;97726.03;;;13.51;66.35
76128;BME280;64873;50.102;14.434;2023-03-31T13:27:56;97710.75;;;13.41;66.50
76128;BME280;64873;50.102;14.434;2023-03-31T13:33:34;97690.84;;;13.57;66.48
76128;BME280;64873;50.102;14.434;2023-03-31T13:38:51;97678.44;;;13.72;65.61
76128;BME280;64873;50.102;14.434;2023-03-31T13:49:50;97674.28;;;13.40;67.12
76128;BME280;64873;50.102;14.434;2023-03-31T13:52:55;97674.28;;;13.40;67.45
76128;BME280;64873;50.102;14.434;2023-03-31T13:55:46;97679.22;;;12.92;68.21
76128;BME280;64873;50.102;14.434;2023-03-31T14:07:44;97738.63;;;10.92;70.14
76128;BME280;64873;50.102;14.434;2023-03-31T14:10:32;97706.47;;;10.82;69.27
76128;BME280;64873;50.102;14.434;2023-03-31T14:15:31;97684.03;;;10.46;71.49
76128;BME280;64873;50.102;14.434;2023-03-31T14:17:57;97695.50;;;10.47;71.62
76128;BME280;64873;50.102;14.434;2023-03-31T14:23:15;97713.84;;;10.70;69.80
76128;BME280;64873;50.102;14.434;2023-03-31T14:26:02;97722.19;;;10.79;69.00
76128;BME280;64873;50.102;14.434;2023-03-31T14:28:53;97739.25;;;11.10;68.22
76128;BME280;64873;50.102;14.434;2023-03-31T14:31:26;97732.97;;;11.31;67.35
76128;BME280;64873;50.102;14.434;2023-03-31T14:37:04;97732.53;;;11.50;66.99
76128;BME280;64873;50.102;14.434;2023-03-31T14:39:36;97720.97;;;11.39;66.91
76128;BME280;64873;50.102;14.434;2023-03-31T14:42:10;97726.03;;;11.35;66.51
76128;BME280;64873;50.102;14.434;2023-03-31T14:44:37;97700.03;;;11.26;66.16
76128;BME280;64873;50.102;14.434;2023-03-31T14:47:04;97722.34;;;11.46;65.73
76128;BME280;64873;50.102;14.434;2023-03-31T14:49:35;97709.72;;;11.32;65.79
76128;BME280;64873;50.102;14.434;2023-03-31T14:52:20;97702.91;;;11.14;66.28
76128;BME280;64873;50.102;14.434;2023-03-31T14:54:51;97707.03;;;10.89;67.25
76128;BME280;64873;50.102;14.434;2023-03-31T14:57:19;97711.97;;;11.03;67.55
76128;BME280;64873;50.102;14.434;2023-03-31T14:59:50;97706.38;;;11.09;67.12
76128;BME280;64873;50.102;14.434;2023-03-31T15:02:28;97697.47;;;10.93;67.97
76128;BME280;64873;50.102;14.434;2023-03-31T15:04:55;97690.56;;;11.03;67.96
76128;BME280;64873;50.102;14.434;2023-03-31T15:07:22;97687.69;;;10.72;68.33
76128;BME280;64873;50.102;14.434;2023-03-31T15:09:49;97693.03;;;11.09;68.04
76128;BME280;64873;50.102;14.434;2023-03-31T15:12:18;97691.00;;;10.89;69.52
76128;BME280;64873;50.102;14.434;2023-03-31T15:14:48;97694.53;;;10.95;69.08
76128;BME280;64873;50.102;14.434;2023-03-31T15:17:38;97682.22;;;10.94;69.29
76128;BME280;64873;50.102;14.434;2023-03-31T15:20:24;97672.91;;;11.02;68.54
76128;BME280;64873;50.102;14.434;2023-03-31T15:22:53;97647.38;;;10.74;69.90
76128;BME280;64873;50.102;14.434;2023-03-31T15:25:19;97655.09;;;10.70;69.61
76128;BME280;64873;50.102;14.434;2023-03-31T15:27:53;97652.50;;;10.80;69.62
76128;BME280;64873;50.102;14.434;2023-03-31T15:30:23;97655.72;;;10.87;69.55
76128;BME280;64873;50.102;14.434;2023-03-31T15:32:50;97651.41;;;10.81;69.41
76128;BME280;64873;50.102;14.434;2023-03-31T15:35:20;97643.94;;;10.83;69.18
76128;BME280;64873;50.102;14.434;2023-03-31T15:37:49;97642.47;;;11.08;68.51
76128;BME280;64873;50.102;14.434;2023-03-31T15:40:27;97636.09;;;11.19;68.36